sensor_id;sensor_type;location;lat;lon;timestamp;pressure;altitude;pressure_sealevel;temperature;humidity
12471;BME280;36499;46.484;13.832;2022-08-01T00:02:06;93283.47;;;19.86;66.33
12471;BME280;36499;46.484;13.832;2022-08-01T00:04:33;93276.34;;;19.92;66.17
12471;BME280;36499;46.484;13.832;2022-08-01T00:07:00;93284.53;;;19.90;66.74
12471;BME280;36499;46.484;13.832;2022-08-01T00:09:27;93283.75;;;19.85;67.15
12471;BME280;36499;46.484;13.832;2022-08-01T00:11:54;93275.78;;;19.80;66.71
12471;BME280;36499;46.484;13.832;2022-08-01T00:14:22;93277.66;;;19.84;67.12
12471;BME280;36499;46.484;13.832;2022-08-01T00:16:49;93277.66;;;19.79;66.43
12471;BME280;36499;46.484;13.832;2022-08-01T00:19:18;93273.94;;;19.80;66.21
12471;BME280;36499;46.484;13.832;2022-08-01T00:21:45;93276.06;;;19.83;66.42
12471;BME280;36499;46.484;13.832;2022-08-01T00:24:12;93276.88;;;19.84;66.94
12471;BME280;36499;46.484;13.832;2022-08-01T00:26:39;93272.09;;;19.81;66.43
12471;BME280;36499;46.484;13.832;2022-08-01T00:29:06;93270.25;;;19.76;66.35
12471;BME280;36499;46.484;13.832;2022-08-01T00:31:33;93268.16;;;19.78;66.43
12471;BME280;36499;46.484;13.832;2022-08-01T00:34:00;93265.75;;;19.77;66.40
12471;BME280;36499;46.484;13.832;2022-08-01T00:36:29;93265.19;;;19.75;66.46
12471;BME280;36499;46.484;13.832;2022-08-01T00:38:56;93265.50;;;19.78;66.47
12471;BME280;36499;46.484;13.832;2022-08-01T00:41:23;93259.41;;;19.78;66.52
12471;BME280;36499;46.484;13.832;2022-08-01T00:43:51;93263.38;;;19.85;66.15
12471;BME280;36499;46.484;13.832;2022-08-01T00:46:18;93265.22;;;19.70;67.04
12471;BME280;36499;46.484;13.832;2022-08-01T00:48:45;93261.78;;;19.69;66.86
12471;BME280;36499;46.484;13.832;2022-08-01T00:51:13;93268.16;;;19.78;65.83
12471;BME280;36499;46.484;13.832;2022-08-01T00:53:42;93264.44;;;19.84;65.48
12471;BME280;36499;46.484;13.832;2022-08-01T00:56:09;93262.56;;;19.75;65.68
12471;BME280;36499;46.484;13.832;2022-08-01T00:58:37;93265.22;;;19.80;65.74
12471;BME280;36499;46.484;13.832;2022-08-01T01:01:04;93264.69;;;19.73;65.59
12471;BME280;36499;46.484;13.832;2022-08-01T01:03:31;93272.63;;;19.73;65.36
12471;BME280;36499;46.484;13.832;2022-08-01T01:06:14;93273.41;;;19.68;65.70
12471;BME280;36499;46.484;13.832;2022-08-01T01:09:04;93278.69;;;19.58;65.74
12471;BME280;36499;46.484;13.832;2022-08-01T01:11:45;93266.00;;;19.50;65.40
12471;BME280;36499;46.484;13.832;2022-08-01T01:14:27;93277.63;;;19.49;65.35
12471;BME280;36499;46.484;13.832;2022-08-01T01:17:00;93272.25;;;19.34;66.03
12471;BME280;36499;46.484;13.832;2022-08-01T01:19:43;93266.16;;;19.23;66.56
12471;BME280;36499;46.484;13.832;2022-08-01T01:22:44;93266.13;;;19.18;66.52
12471;BME280;36499;46.484;13.832;2022-08-01T01:25:39;93269.25;;;18.95;67.42
12471;BME280;36499;46.484;13.832;2022-08-01T01:28:17;93259.44;;;18.85;67.20
12471;BME280;36499;46.484;13.832;2022-08-01T01:30:53;93260.97;;;18.71;68.17
12471;BME280;36499;46.484;13.832;2022-08-01T01:33:27;93260.66;;;18.62;68.50
12471;BME280;36499;46.484;13.832;2022-08-01T01:36:03;93252.72;;;18.57;68.99
12471;BME280;36499;46.484;13.832;2022-08-01T01:38:37;93250.09;;;18.62;68.83
12471;BME280;36499;46.484;13.832;2022-08-01T01:41:09;93255.63;;;18.56;68.97
12471;BME280;36499;46.484;13.832;2022-08-01T01:43:39;93253.97;;;18.50;69.19
12471;BME280;36499;46.484;13.832;2022-08-01T01:46:12;93253.41;;;18.43;69.00
12471;BME280;36499;46.484;13.832;2022-08-01T01:48:44;93255.47;;;18.36;69.32
12471;BME280;36499;46.484;13.832;2022-08-01T01:51:13;93256.50;;;18.30;69.59
12471;BME280;36499;46.484;13.832;2022-08-01T01:53:44;93252.78;;;18.26;70.10
12471;BME280;36499;46.484;13.832;2022-08-01T01:56:16;93253.31;;;18.28;70.07
12471;BME280;36499;46.484;13.832;2022-08-01T01:58:45;93256.94;;;18.16;70.38
12471;BME280;36499;46.484;13.832;2022-08-01T02:01:18;93260.34;;;18.12;70.06
12471;BME280;36499;46.484;13.832;2022-08-01T02:03:48;93259.00;;;18.09;69.91
12471;BME280;36499;46.484;13.832;2022-08-01T02:06:17;93257.38;;;18.03;70.25
12471;BME280;36499;46.484;13.832;2022-08-01T02:08:47;93263.16;;;18.00;70.18
12471;BME280;36499;46.484;13.832;2022-08-01T02:11:14;93258.34;;;17.92;70.50
12471;BME280;36499;46.484;13.832;2022-08-01T02:13:53;93257.53;;;17.87;70.54
12471;BME280;36499;46.484;13.832;2022-08-01T02:16:28;93257.88;;;17.95;70.17
12471;BME280;36499;46.484;13.832;2022-08-01T02:18:56;93252.59;;;17.95;70.00
12471;BME280;36499;46.484;13.832;2022-08-01T02:21:29;93249.91;;;17.90;70.00
12471;BME280;36499;46.484;13.832;2022-08-01T02:24:07;93250.69;;;17.91;69.69
12471;BME280;36499;46.484;13.832;2022-08-01T02:26:43;93254.56;;;17.78;70.36
12471;BME280;36499;46.484;13.832;2022-08-01T02:29:21;93248.19;;;17.74;70.38
12471;BME280;36499;46.484;13.832;2022-08-01T02:31:54;93244.69;;;17.63;70.38
12471;BME280;36499;46.484;13.832;2022-08-01T02:34:31;93249.91;;;17.58;70.65
12471;BME280;36499;46.484;13.832;2022-08-01T02:37:04;93252.84;;;17.62;70.72
12471;BME280;36499;46.484;13.832;2022-08-01T02:39:35;93256.69;;;17.54;70.96
12471;BME280;36499;46.484;13.832;2022-08-01T02:42:07;93261.72;;;17.56;70.95
12471;BME280;36499;46.484;13.832;2022-08-01T02:44:41;93260.13;;;17.55;70.75
12471;BME280;36499;46.484;13.832;2022-08-01T02:47:12;93258.88;;;17.57;70.73
12471;BME280;36499;46.484;13.832;2022-08-01T02:49:44;93257.81;;;17.58;70.54
12471;BME280;36499;46.484;13.832;2022-08-01T02:52:16;93257.75;;;17.53;70.38
12471;BME280;36499;46.484;13.832;2022-08-01T02:54:49;93254.53;;;17.46;70.53
12471;BME280;36499;46.484;13.832;2022-08-01T02:57:19;93251.09;;;17.46;70.24
12471;BME280;36499;46.484;13.832;2022-08-01T02:59:49;93253.13;;;17.39;70.97
12471;BME280;36499;46.484;13.832;2022-08-01T03:02:21;93255.47;;;17.35;70.67
12471;BME280;36499;46.484;13.832;2022-08-01T03:04:51;93257.56;;;17.33;70.93
12471;BME280;36499;46.484;13.832;2022-08-01T03:07:21;93259.03;;;17.24;71.41
12471;BME280;36499;46.484;13.832;2022-08-01T03:09:51;93253.59;;;17.31;70.85
12471;BME280;36499;46.484;13.832;2022-08-01T03:12:23;93254.94;;;17.33;70.80
12471;BME280;36499;46.484;13.832;2022-08-01T03:14:55;93253.38;;;17.37;70.73
12471;BME280;36499;46.484;13.832;2022-08-01T03:17:27;93257.31;;;17.35;70.97
12471;BME280;36499;46.484;13.832;2022-08-01T03:19:57;93255.47;;;17.35;70.60
12471;BME280;36499;46.484;13.832;2022-08-01T03:22:28;93258.38;;;17.34;70.55
12471;BME280;36499;46.484;13.832;2022-08-01T03:25:01;93257.56;;;17.33;70.78
12471;BME280;36499;46.484;13.832;2022-08-01T03:27:30;93260.50;;;17.37;70.34
12471;BME280;36499;46.484;13.832;2022-08-01T03:29:59;93268.41;;;17.37;70.40
12471;BME280;36499;46.484;13.832;2022-08-01T03:32:34;93260.44;;;17.32;70.20
12471;BME280;36499;46.484;13.832;2022-08-01T03:35:04;93259.91;;;17.30;70.32
12471;BME280;36499;46.484;13.832;2022-08-01T03:37:38;93254.84;;;17.23;70.31
12471;BME280;36499;46.484;13.832;2022-08-01T03:40:14;93253.47;;;17.20;70.60
12471;BME280;36499;46.484;13.832;2022-08-01T03:42:47;93239.50;;;17.20;70.72
12471;BME280;36499;46.484;13.832;2022-08-01T03:45:22;93245.34;;;17.22;70.25
12471;BME280;36499;46.484;13.832;2022-08-01T03:47:59;93238.47;;;17.21;70.35
12471;BME280;36499;46.484;13.832;2022-08-01T03:50:33;93244.53;;;17.21;70.77
12471;BME280;36499;46.484;13.832;2022-08-01T03:53:02;93242.41;;;17.18;70.77
12471;BME280;36499;46.484;13.832;2022-08-01T03:55:32;93241.84;;;17.16;70.39
12471;BME280;36499;46.484;13.832;2022-08-01T03:58:02;93239.97;;;17.12;70.25
12471;BME280;36499;46.484;13.832;2022-08-01T04:00:30;93237.59;;;17.10;70.10
12471;BME280;36499;46.484;13.832;2022-08-01T04:03:00;93241.25;;;17.09;70.42
12471;BME280;36499;46.484;13.832;2022-08-01T04:05:27;93246.81;;;17.13;70.63
12471;BME280;36499;46.484;13.832;2022-08-01T04:07:54;93241.53;;;17.13;70.54
12471;BME280;36499;46.484;13.832;2022-08-01T04:10:22;93248.66;;;17.12;70.70
12471;BME280;36499;46.484;13.832;2022-08-01T04:12:50;93254.69;;;17.08;70.41
12471;BME280;36499;46.484;13.832;2022-08-01T04:15:18;93250.03;;;16.93;70.53
12471;BME280;36499;46.484;13.832;2022-08-01T04:17:46;93257.03;;;16.83;70.76
12471;BME280;36499;46.484;13.832;2022-08-01T04:20:16;93257.53;;;16.79;70.75
12471;BME280;36499;46.484;13.832;2022-08-01T04:22:43;93263.81;;;16.78;71.17
12471;BME280;36499;46.484;13.832;2022-08-01T04:25:15;93269.88;;;16.79;71.22
12471;BME280;36499;46.484;13.832;2022-08-01T04:27:49;93267.25;;;16.79;71.45
12471;BME280;36499;46.484;13.832;2022-08-01T04:30:21;93266.22;;;16.80;71.64
12471;BME280;36499;46.484;13.832;2022-08-01T04:32:51;93276.81;;;16.85;72.39
12471;BME280;36499;46.484;13.832;2022-08-01T04:35:22;93263.41;;;16.87;71.97
12471;BME280;36499;46.484;13.832;2022-08-01T04:37:53;93272.03;;;16.82;72.28
12471;BME280;36499;46.484;13.832;2022-08-01T04:40:28;93277.78;;;16.79;72.42
12471;BME280;36499;46.484;13.832;2022-08-01T04:43:00;93272.78;;;16.77;72.99
12471;BME280;36499;46.484;13.832;2022-08-01T04:45:28;93270.16;;;16.77;72.97
12471;BME280;36499;46.484;13.832;2022-08-01T04:48:00;93269.97;;;16.84;73.50
12471;BME280;36499;46.484;13.832;2022-08-01T04:50:28;93262.66;;;16.91;73.53
12471;BME280;36499;46.484;13.832;2022-08-01T04:52:57;93265.09;;;16.98;73.36
12471;BME280;36499;46.484;13.832;2022-08-01T04:55:25;93271.66;;;16.95;73.94
12471;BME280;36499;46.484;13.832;2022-08-01T04:57:53;93273.63;;;16.83;73.39
12471;BME280;36499;46.484;13.832;2022-08-01T05:00:20;93288.13;;;16.86;73.72
12471;BME280;36499;46.484;13.832;2022-08-01T05:02:47;93287.91;;;16.87;73.54
12471;BME280;36499;46.484;13.832;2022-08-01T05:05:15;93288.47;;;16.89;74.10
12471;BME280;36499;46.484;13.832;2022-08-01T05:07:43;93292.13;;;16.88;74.33
12471;BME280;36499;46.484;13.832;2022-08-01T05:10:11;93290.03;;;16.90;74.74
12471;BME280;36499;46.484;13.832;2022-08-01T05:12:39;93292.72;;;16.95;74.39
12471;BME280;36499;46.484;13.832;2022-08-01T05:15:08;93297.81;;;17.02;73.91
12471;BME280;36499;46.484;13.832;2022-08-01T05:17:35;93286.59;;;17.11;73.57
12471;BME280;36499;46.484;13.832;2022-08-01T05:20:03;93290.66;;;17.24;72.68
12471;BME280;36499;46.484;13.832;2022-08-01T05:22:32;93285.81;;;17.38;71.96
12471;BME280;36499;46.484;13.832;2022-08-01T05:25:01;93282.22;;;17.49;71.74
12471;BME280;36499;46.484;13.832;2022-08-01T05:27:33;93289.88;;;17.50;71.46
12471;BME280;36499;46.484;13.832;2022-08-01T05:30:07;93288.72;;;17.63;71.76
12471;BME280;36499;46.484;13.832;2022-08-01T05:32:35;93272.50;;;17.76;71.20
12471;BME280;36499;46.484;13.832;2022-08-01T05:35:03;93274.44;;;17.91;70.37
12471;BME280;36499;46.484;13.832;2022-08-01T05:37:30;93276.91;;;18.07;70.32
12471;BME280;36499;46.484;13.832;2022-08-01T05:39:57;93273.38;;;18.29;69.80
12471;BME280;36499;46.484;13.832;2022-08-01T05:42:26;93275.03;;;18.40;68.71
12471;BME280;36499;46.484;13.832;2022-08-01T05:44:56;93280.47;;;18.60;67.82
12471;BME280;36499;46.484;13.832;2022-08-01T05:47:23;93271.03;;;18.74;66.22
12471;BME280;36499;46.484;13.832;2022-08-01T05:49:51;93271.63;;;18.96;66.82
12471;BME280;36499;46.484;13.832;2022-08-01T05:52:18;93273.03;;;19.19;66.66
12471;BME280;36499;46.484;13.832;2022-08-01T05:54:45;93262.22;;;19.41;65.46
12471;BME280;36499;46.484;13.832;2022-08-01T05:57:12;93259.91;;;19.59;64.54
12471;BME280;36499;46.484;13.832;2022-08-01T05:59:40;93248.00;;;19.72;62.90
12471;BME280;36499;46.484;13.832;2022-08-01T06:02:08;93242.72;;;19.97;61.96
12471;BME280;36499;46.484;13.832;2022-08-01T06:04:35;93240.59;;;20.09;60.58
12471;BME280;36499;46.484;13.832;2022-08-01T06:07:02;93235.56;;;20.28;59.99
12471;BME280;36499;46.484;13.832;2022-08-01T06:09:29;93242.69;;;20.43;59.92
12471;BME280;36499;46.484;13.832;2022-08-01T06:11:57;93246.63;;;20.55;58.96
12471;BME280;36499;46.484;13.832;2022-08-01T06:14:24;93244.97;;;20.75;58.73
12471;BME280;36499;46.484;13.832;2022-08-01T06:16:53;93240.88;;;21.08;58.25
12471;BME280;36499;46.484;13.832;2022-08-01T06:19:20;93241.84;;;21.27;57.58
12471;BME280;36499;46.484;13.832;2022-08-01T06:21:47;93240.41;;;21.49;56.85
12471;BME280;36499;46.484;13.832;2022-08-01T06:24:14;93239.69;;;21.73;55.66
12471;BME280;36499;46.484;13.832;2022-08-01T06:26:42;93231.81;;;21.96;55.98
12471;BME280;36499;46.484;13.832;2022-08-01T06:29:09;93229.47;;;22.24;55.84
12471;BME280;36499;46.484;13.832;2022-08-01T06:31:36;93227.50;;;22.34;54.37
12471;BME280;36499;46.484;13.832;2022-08-01T06:34:05;93227.69;;;22.43;52.86
12471;BME280;36499;46.484;13.832;2022-08-01T06:36:32;93227.00;;;22.56;51.35
12471;BME280;36499;46.484;13.832;2022-08-01T06:38:59;93225.22;;;22.75;51.67
12471;BME280;36499;46.484;13.832;2022-08-01T06:41:26;93225.72;;;22.77;51.77
12471;BME280;36499;46.484;13.832;2022-08-01T06:43:53;93221.84;;;22.70;52.08
12471;BME280;36499;46.484;13.832;2022-08-01T06:46:20;93210.50;;;22.59;50.95
12471;BME280;36499;46.484;13.832;2022-08-01T06:48:47;93216.53;;;22.70;51.87
12471;BME280;36499;46.484;13.832;2022-08-01T06:51:16;93224.22;;;22.71;52.15
12471;BME280;36499;46.484;13.832;2022-08-01T06:53:45;93216.97;;;22.77;50.76
12471;BME280;36499;46.484;13.832;2022-08-01T06:56:13;93214.19;;;23.06;51.04
12471;BME280;36499;46.484;13.832;2022-08-01T06:58:40;93211.69;;;22.95;50.14
12471;BME280;36499;46.484;13.832;2022-08-01T07:01:07;93221.25;;;22.97;50.00
12471;BME280;36499;46.484;13.832;2022-08-01T07:03:35;93212.97;;;22.98;49.31
12471;BME280;36499;46.484;13.832;2022-08-01T07:06:02;93208.13;;;23.05;50.80
12471;BME280;36499;46.484;13.832;2022-08-01T07:08:31;93205.94;;;23.07;50.30
12471;BME280;36499;46.484;13.832;2022-08-01T07:10:58;93208.56;;;23.31;51.37
12471;BME280;36499;46.484;13.832;2022-08-01T07:13:26;93209.34;;;23.31;49.38
12471;BME280;36499;46.484;13.832;2022-08-01T07:15:53;93203.47;;;23.53;51.55
12471;BME280;36499;46.484;13.832;2022-08-01T07:18:21;93198.13;;;23.72;49.45
12471;BME280;36499;46.484;13.832;2022-08-01T07:20:48;93192.75;;;23.90;50.26
12471;BME280;36499;46.484;13.832;2022-08-01T07:23:16;93199.50;;;24.02;50.70
12471;BME280;36499;46.484;13.832;2022-08-01T07:25:44;93194.78;;;24.12;49.55
12471;BME280;36499;46.484;13.832;2022-08-01T07:28:12;93189.72;;;24.29;49.17
12471;BME280;36499;46.484;13.832;2022-08-01T07:30:39;93187.53;;;24.31;48.94
12471;BME280;36499;46.484;13.832;2022-08-01T07:33:08;93188.72;;;24.25;47.88
12471;BME280;36499;46.484;13.832;2022-08-01T07:35:35;93185.31;;;24.52;50.10
12471;BME280;36499;46.484;13.832;2022-08-01T07:38:04;93178.59;;;24.68;49.30
12471;BME280;36499;46.484;13.832;2022-08-01T07:40:31;93182.25;;;24.72;47.57
12471;BME280;36499;46.484;13.832;2022-08-01T07:42:59;93177.91;;;24.90;47.60
12471;BME280;36499;46.484;13.832;2022-08-01T07:45:27;93173.25;;;25.09;46.93
12471;BME280;36499;46.484;13.832;2022-08-01T07:47:54;93169.38;;;25.15;45.29
12471;BME280;36499;46.484;13.832;2022-08-01T07:50:21;93174.16;;;25.41;46.58
12471;BME280;36499;46.484;13.832;2022-08-01T07:52:48;93169.28;;;25.56;45.75
12471;BME280;36499;46.484;13.832;2022-08-01T07:55:15;93167.09;;;25.58;45.01
12471;BME280;36499;46.484;13.832;2022-08-01T07:57:43;93156.16;;;25.68;45.11
12471;BME280;36499;46.484;13.832;2022-08-01T08:00:13;93157.38;;;25.85;45.51
12471;BME280;36499;46.484;13.832;2022-08-01T08:02:40;93156.91;;;25.83;44.45
12471;BME280;36499;46.484;13.832;2022-08-01T08:05:08;93154.03;;;26.01;44.57
12471;BME280;36499;46.484;13.832;2022-08-01T08:07:35;93161.91;;;26.06;45.11
12471;BME280;36499;46.484;13.832;2022-08-01T08:10:04;93165.13;;;26.17;44.36
12471;BME280;36499;46.484;13.832;2022-08-01T08:12:31;93155.81;;;26.06;43.12
12471;BME280;36499;46.484;13.832;2022-08-01T08:14:59;93157.22;;;26.12;44.45
12471;BME280;36499;46.484;13.832;2022-08-01T08:17:28;93150.81;;;26.44;43.16
12471;BME280;36499;46.484;13.832;2022-08-01T08:19:55;93153.03;;;26.50;42.51
12471;BME280;36499;46.484;13.832;2022-08-01T08:22:22;93147.44;;;26.69;43.83
12471;BME280;36499;46.484;13.832;2022-08-01T08:24:50;93151.50;;;26.58;42.44
12471;BME280;36499;46.484;13.832;2022-08-01T08:27:17;93151.09;;;26.82;41.01
12471;BME280;36499;46.484;13.832;2022-08-01T08:29:44;93143.94;;;27.08;41.62
12471;BME280;36499;46.484;13.832;2022-08-01T08:32:12;93147.09;;;27.18;41.71
12471;BME280;36499;46.484;13.832;2022-08-01T08:34:41;93151.84;;;27.30;41.22
12471;BME280;36499;46.484;13.832;2022-08-01T08:37:08;93144.59;;;27.22;39.10
12471;BME280;36499;46.484;13.832;2022-08-01T08:39:36;93148.53;;;27.33;37.09
12471;BME280;36499;46.484;13.832;2022-08-01T08:42:08;93149.06;;;27.70;38.17
12471;BME280;36499;46.484;13.832;2022-08-01T08:44:36;93147.91;;;27.79;38.79
12471;BME280;36499;46.484;13.832;2022-08-01T08:47:06;93158.34;;;27.81;36.50
12471;BME280;36499;46.484;13.832;2022-08-01T08:49:35;93152.63;;;28.08;35.73
12471;BME280;36499;46.484;13.832;2022-08-01T08:52:05;93144.84;;;28.32;34.35
12471;BME280;36499;46.484;13.832;2022-08-01T08:54:37;93146.34;;;28.50;34.48
12471;BME280;36499;46.484;13.832;2022-08-01T08:57:09;93139.34;;;28.67;35.85
12471;BME280;36499;46.484;13.832;2022-08-01T08:59:37;93145.25;;;28.89;33.49
12471;BME280;36499;46.484;13.832;2022-08-01T09:02:05;93141.84;;;29.30;32.89
12471;BME280;36499;46.484;13.832;2022-08-01T09:04:36;93145.53;;;29.26;33.87
12471;BME280;36499;46.484;13.832;2022-08-01T09:07:06;93145.75;;;29.12;31.52
12471;BME280;36499;46.484;13.832;2022-08-01T09:09:34;93144.69;;;29.04;31.71
12471;BME280;36499;46.484;13.832;2022-08-01T09:12:03;93148.03;;;29.31;33.76
12471;BME280;36499;46.484;13.832;2022-08-01T09:14:30;93153.00;;;29.62;31.71
12471;BME280;36499;46.484;13.832;2022-08-01T09:17:04;93140.06;;;29.76;32.82
12471;BME280;36499;46.484;13.832;2022-08-01T09:19:38;93144.34;;;29.77;33.23
12471;BME280;36499;46.484;13.832;2022-08-01T09:22:09;93135.19;;;30.11;31.85
12471;BME280;36499;46.484;13.832;2022-08-01T09:24:38;93135.69;;;30.37;33.93
12471;BME280;36499;46.484;13.832;2022-08-01T09:27:18;93144.28;;;30.18;30.46
12471;BME280;36499;46.484;13.832;2022-08-01T09:29:46;93139.72;;;30.31;30.35
12471;BME280;36499;46.484;13.832;2022-08-01T09:32:13;93149.31;;;30.53;30.27
12471;BME280;36499;46.484;13.832;2022-08-01T09:34:40;93147.81;;;30.31;30.28
12471;BME280;36499;46.484;13.832;2022-08-01T09:37:09;93142.53;;;30.34;30.76
12471;BME280;36499;46.484;13.832;2022-08-01T09:39:38;93146.34;;;30.33;31.99
12471;BME280;36499;46.484;13.832;2022-08-01T09:42:21;93137.88;;;30.56;33.64
12471;BME280;36499;46.484;13.832;2022-08-01T09:44:49;93132.28;;;31.09;30.79
12471;BME280;36499;46.484;13.832;2022-08-01T09:47:19;93133.88;;;31.22;31.02
12471;BME280;36499;46.484;13.832;2022-08-01T09:49:54;93129.94;;;31.20;29.71
12471;BME280;36499;46.484;13.832;2022-08-01T09:52:26;93136.28;;;31.39;29.87
12471;BME280;36499;46.484;13.832;2022-08-01T09:54:55;93131.84;;;31.19;28.43
12471;BME280;36499;46.484;13.832;2022-08-01T09:57:23;93136.44;;;30.82;29.72
12471;BME280;36499;46.484;13.832;2022-08-01T09:59:53;93128.56;;;30.89;29.79
12471;BME280;36499;46.484;13.832;2022-08-01T10:02:30;93124.75;;;30.78;27.88
12471;BME280;36499;46.484;13.832;2022-08-01T10:04:59;93130.41;;;31.10;32.40
12471;BME280;36499;46.484;13.832;2022-08-01T10:07:28;93130.25;;;31.30;28.99
12471;BME280;36499;46.484;13.832;2022-08-01T10:09:55;93117.22;;;31.32;29.01
12471;BME280;36499;46.484;13.832;2022-08-01T10:12:35;93114.47;;;30.92;28.82
12471;BME280;36499;46.484;13.832;2022-08-01T10:15:07;93115.81;;;31.11;29.57
12471;BME280;36499;46.484;13.832;2022-08-01T10:17:39;93114.09;;;30.94;29.11
12471;BME280;36499;46.484;13.832;2022-08-01T10:20:10;93110.94;;;31.28;27.57
12471;BME280;36499;46.484;13.832;2022-08-01T10:22:40;93113.56;;;31.65;29.60
12471;BME280;36499;46.484;13.832;2022-08-01T10:25:09;93107.03;;;31.66;27.63
12471;BME280;36499;46.484;13.832;2022-08-01T10:27:42;93106.69;;;31.95;27.09
12471;BME280;36499;46.484;13.832;2022-08-01T10:30:12;93108.13;;;31.77;26.00
12471;BME280;36499;46.484;13.832;2022-08-01T10:32:40;93096.41;;;32.13;28.71
12471;BME280;36499;46.484;13.832;2022-08-01T10:35:09;93106.53;;;32.47;29.92
12471;BME280;36499;46.484;13.832;2022-08-01T10:37:42;93103.56;;;32.83;26.79
12471;BME280;36499;46.484;13.832;2022-08-01T10:40:12;93095.97;;;32.26;29.86
12471;BME280;36499;46.484;13.832;2022-08-01T10:42:41;93100.06;;;31.93;27.97
12471;BME280;36499;46.484;13.832;2022-08-01T10:45:10;93100.63;;;31.18;29.81
12471;BME280;36499;46.484;13.832;2022-08-01T10:47:46;93108.06;;;30.85;29.71
12471;BME280;36499;46.484;13.832;2022-08-01T10:50:23;93111.19;;;30.51;29.85
12471;BME280;36499;46.484;13.832;2022-08-01T10:53:10;93111.44;;;30.25;28.98
12471;BME280;36499;46.484;13.832;2022-08-01T10:55:51;93122.41;;;29.75;30.29
12471;BME280;36499;46.484;13.832;2022-08-01T10:58:24;93111.59;;;29.63;30.72
12471;BME280;36499;46.484;13.832;2022-08-01T11:01:19;93109.69;;;29.63;30.70
12471;BME280;36499;46.484;13.832;2022-08-01T11:04:18;93106.06;;;30.25;29.71
12471;BME280;36499;46.484;13.832;2022-08-01T11:07:05;93096.41;;;30.81;32.72
12471;BME280;36499;46.484;13.832;2022-08-01T11:10:02;93094.47;;;31.18;27.74
12471;BME280;36499;46.484;13.832;2022-08-01T11:12:38;93095.06;;;31.39;30.56
12471;BME280;36499;46.484;13.832;2022-08-01T11:15:25;93090.00;;;32.05;30.78
12471;BME280;36499;46.484;13.832;2022-08-01T11:17:54;93081.25;;;32.24;26.36
12471;BME280;36499;46.484;13.832;2022-08-01T11:20:23;93085.88;;;32.23;28.60
12471;BME280;36499;46.484;13.832;2022-08-01T11:23:27;93074.91;;;31.88;26.77
12471;BME280;36499;46.484;13.832;2022-08-01T11:26:13;93078.75;;;31.87;27.71
12471;BME280;36499;46.484;13.832;2022-08-01T11:28:43;93073.31;;;31.72;26.38
12471;BME280;36499;46.484;13.832;2022-08-01T11:31:31;93068.31;;;32.02;27.03
12471;BME280;36499;46.484;13.832;2022-08-01T11:33:59;93064.13;;;32.48;30.25
12471;BME280;36499;46.484;13.832;2022-08-01T11:36:27;93072.22;;;32.95;26.98
12471;BME280;36499;46.484;13.832;2022-08-01T11:39:17;93066.56;;;32.68;26.45
12471;BME280;36499;46.484;13.832;2022-08-01T11:41:48;93065.03;;;33.02;27.96
12471;BME280;36499;46.484;13.832;2022-08-01T11:44:19;93057.50;;;32.61;27.27
12471;BME280;36499;46.484;13.832;2022-08-01T11:47:00;93065.22;;;32.00;27.23
12471;BME280;36499;46.484;13.832;2022-08-01T11:49:44;93061.41;;;31.73;27.58
12471;BME280;36499;46.484;13.832;2022-08-01T11:52:14;93058.31;;;31.47;26.70
12471;BME280;36499;46.484;13.832;2022-08-01T11:54:44;93057.94;;;31.32;28.59
12471;BME280;36499;46.484;13.832;2022-08-01T11:57:17;93052.31;;;31.37;28.00
12471;BME280;36499;46.484;13.832;2022-08-01T11:59:47;93050.41;;;31.38;30.81
12471;BME280;36499;46.484;13.832;2022-08-01T12:02:20;93046.94;;;31.25;33.43
12471;BME280;36499;46.484;13.832;2022-08-01T12:04:52;93046.00;;;31.06;28.72
12471;BME280;36499;46.484;13.832;2022-08-01T12:07:20;93043.97;;;31.03;31.42
12471;BME280;36499;46.484;13.832;2022-08-01T12:09:48;93037.06;;;30.77;34.75
12471;BME280;36499;46.484;13.832;2022-08-01T12:12:17;93039.38;;;31.03;38.57
12471;BME280;36499;46.484;13.832;2022-08-01T12:14:52;93030.88;;;31.29;32.63
12471;BME280;36499;46.484;13.832;2022-08-01T12:17:28;93031.97;;;31.68;32.31
12471;BME280;36499;46.484;13.832;2022-08-01T12:19:55;93025.63;;;32.19;31.17
12471;BME280;36499;46.484;13.832;2022-08-01T12:22:23;93016.81;;;32.54;27.24
12471;BME280;36499;46.484;13.832;2022-08-01T12:24:51;93028.53;;;32.93;29.00
12471;BME280;36499;46.484;13.832;2022-08-01T12:27:28;93022.63;;;33.22;29.91
12471;BME280;36499;46.484;13.832;2022-08-01T12:29:59;93021.69;;;33.34;27.53
12471;BME280;36499;46.484;13.832;2022-08-01T12:32:29;93003.91;;;33.52;26.25
12471;BME280;36499;46.484;13.832;2022-08-01T12:35:02;93011.25;;;33.51;27.96
12471;BME280;36499;46.484;13.832;2022-08-01T12:37:29;93010.66;;;33.61;27.90
12471;BME280;36499;46.484;13.832;2022-08-01T12:39:57;93012.13;;;33.97;26.13
12471;BME280;36499;46.484;13.832;2022-08-01T12:42:27;93001.41;;;33.82;25.06
12471;BME280;36499;46.484;13.832;2022-08-01T12:44:55;92996.25;;;33.96;28.58
12471;BME280;36499;46.484;13.832;2022-08-01T12:47:24;92996.69;;;34.20;27.30
12471;BME280;36499;46.484;13.832;2022-08-01T12:49:52;92993.09;;;34.36;25.28
12471;BME280;36499;46.484;13.832;2022-08-01T12:52:19;92993.66;;;34.03;23.36
12471;BME280;36499;46.484;13.832;2022-08-01T12:55:18;92996.91;;;33.89;23.92
12471;BME280;36499;46.484;13.832;2022-08-01T12:58:05;92993.53;;;33.73;23.35
12471;BME280;36499;46.484;13.832;2022-08-01T13:00:34;92990.25;;;33.64;24.99
12471;BME280;36499;46.484;13.832;2022-08-01T13:03:05;92993.22;;;33.59;25.18
12471;BME280;36499;46.484;13.832;2022-08-01T13:05:44;93000.63;;;33.23;25.36
12471;BME280;36499;46.484;13.832;2022-08-01T13:08:12;92995.84;;;32.98;25.29
12471;BME280;36499;46.484;13.832;2022-08-01T13:10:40;92994.56;;;32.76;25.11